Aérodrome :
LOGIN :

S'inscrire | Disclaimer

   EN    FR    IT 

 










Légende :    VFR   VFR Marginal   IFR   IFR Intensif   IFR Très Intensif
Visi : 
Plafond : 
>= 8 km
>= 3000ft
5 à 8 km
1000 à 3000 ft
1500m à 5 km
500 à 1000 ft
800 à 1500m
200 à 500 ft
< 800m
< 200 ft
Symboles :   Orages  Brouillard  Fortes neiges  Fortes précipitations  Vent > 20 kt
SIGMETs :   Divers  Orages  Givrage  Turbulence  Onde Orograph.  Cendres Volcan.






- Altitude de l'aérodrome : 650 ft
- Code IATA : ZJI


LSZL - Locarno

DERNIER METAR :
  • 022150Z AUTO VRB01KT 9999NDV FEW070 16/15 Q1012 RMK

METARs EXPIRÉS :
  • 022120Z AUTO 16003KT 9999NDV FEW110 17/14 Q1012 RMK
  • 022050Z AUTO VRB04KT 9999NDV FEW110 18/13 Q1013 RMK
  • 022020Z AUTO VRB04KT 9999NDV FEW055 SCT065 20/12 Q1012 RMK
  • 021950Z AUTO VRB05KT 9999NDV BKN048 22/11 Q1012 RMK
  • 021920Z AUTO 32009G19KT 260V030 9999NDV BKN052 24/13 Q1010 RMK

TAF TAF LSZL
Valide du 02 à 18h jusqu'au 03 à 03h UTC


021725Z 0218/0303 23003KT 9999 FEW130
BECMG 0218/0221 CAVOK



MET'MAP, la Météo Aéronautique d'un coup d'oeil ! - Copyright ORBIFLY Décembre 2007 - Disclaimer

ORBIFLY MET'MAP TEAM :

Programmation & Développement : Alexandra Zaïnal
Sur une idée originale de : Baudouin d'Aumeries
Assistance à la programmation : Marc-Olivier Méhu
Soutien technique & logistique : Manuel Goepfert

Contact : metmap@orbifly.com




SOURCES & CREDITS :

   NOAA